Time;durP1;ratioP1;P1;durP2;ratioP2;P2;SDS_P1;SDS_P2;PMS_P1;PMS_P2;Temp;Humidity;BMP_temperature;BMP_pressure;BME280_temperature;BME280_humidity;BME280_pressure;Samples;Min_cycle;Max_cycle;Signal;HPM_P1;HPM_P2
2021/10/21 00:03:02;;;;;;;4.63;3.33;;;;;;;17.35;70.39;99167.85;5053559;58;1137003;-78
2021/10/21 00:08:07;;;;;;;4.67;3.00;;;;;;;17.34;70.41;99170.72;5064552;57;1137044;-80
2021/10/21 00:13:14;;;;;;;4.37;2.30;;;;;;;17.35;70.58;99149.66;5067540;57;1137070;-80
2021/10/21 00:18:20;;;;;;;3.40;3.10;;;;;;;17.33;70.48;99138.33;5067560;57;1136976;-80
2021/10/21 00:23:25;;;;;;;5.43;3.00;;;;;;;17.31;70.56;99116.32;5067606;57;1136933;-80
2021/10/21 00:28:31;;;;;;;3.57;2.73;;;;;;;17.31;70.46;99112.31;5067998;57;1137101;-78
2021/10/21 00:33:37;;;;;;;5.83;2.97;;;;;;;17.32;70.36;99101.94;5068216;57;1137135;-79
2021/10/21 00:38:43;;;;;;;3.30;3.00;;;;;;;17.33;70.29;99087.55;5050408;56;1136930;-80
2021/10/21 00:43:52;;;;;;;3.90;3.60;;;;;;;17.34;70.22;99067.31;5024161;58;1136982;-81
2021/10/21 00:48:57;;;;;;;3.00;2.23;;;;;;;17.31;70.07;99049.52;5012447;57;1137074;-78
2021/10/21 00:54:04;;;;;;;6.60;3.50;;;;;;;17.30;69.94;99032.66;4996412;58;1137033;-80
2021/10/21 00:59:12;;;;;;;7.67;3.93;;;;;;;17.26;70.01;99044.78;4999348;58;1137012;-80
2021/10/21 01:04:18;;;;;;;7.57;3.50;;;;;;;17.17;70.12;99080.17;4999717;58;1137263;-80
2021/10/21 01:09:25;;;;;;;8.17;4.57;;;;;;;17.05;70.31;99061.70;4996657;58;1136974;-81
2021/10/21 01:14:30;;;;;;;3.83;3.30;;;;;;;16.95;70.70;99048.40;4997498;58;1137208;-78
2021/10/21 01:19:36;;;;;;;5.20;3.40;;;;;;;16.85;70.86;99044.21;4957993;58;1137273;-81
2021/10/21 01:24:42;;;;;;;9.40;4.03;;;;;;;16.85;71.06;99012.67;4906374;59;1136965;-78
2021/10/21 01:29:48;;;;;;;6.50;4.00;;;;;;;16.79;71.19;98995.61;4904468;59;1137024;-79
2021/10/21 01:34:54;;;;;;;4.23;3.73;;;;;;;16.77;71.34;98980.80;4825444;61;1137003;-81
2021/10/21 01:40:01;;;;;;;6.02;3.50;;;;;;;16.76;71.57;98987.98;4824193;61;1137194;-78
2021/10/21 01:45:22;;;;;;;5.17;3.33;;;;;;;16.76;71.88;98992.50;4900670;59;1136962;-79
2021/10/21 01:50:31;;;;;;;4.33;3.62;;;;;;;16.74;72.03;98981.19;5012003;58;1136900;-82
2021/10/21 01:55:37;;;;;;;5.53;3.10;;;;;;;16.71;72.14;98974.39;5048902;58;1136989;-80
2021/10/21 02:00:43;;;;;;;3.23;2.93;;;;;;;16.69;72.22;98966.26;5050673;58;1137035;-79
2021/10/21 02:05:48;;;;;;;9.70;4.27;;;;;;;16.67;72.33;98954.95;5002128;58;1137236;-78
2021/10/21 02:10:54;;;;;;;4.87;2.63;;;;;;;16.65;72.42;98960.48;5006423;58;1137335;-80
2021/10/21 02:16:00;;;;;;;3.93;3.43;;;;;;;16.63;72.56;98954.53;5037444;58;1137171;-79
2021/10/21 02:21:06;;;;;;;7.87;4.17;;;;;;;16.61;72.73;98960.55;5037498;58;1134871;-81
2021/10/21 02:26:11;;;;;;;4.03;3.37;;;;;;;16.58;72.93;98952.92;5037361;58;1134903;-78
2021/10/21 02:31:18;;;;;;;6.17;4.17;;;;;;;16.55;72.94;98942.63;5037384;58;1135120;-81
2021/10/21 02:36:24;;;;;;;3.97;3.27;;;;;;;16.57;72.95;98943.77;4995711;58;1135047;-79
2021/10/21 02:41:30;;;;;;;4.07;3.67;;;;;;;16.52;73.08;98909.14;5037360;58;1134897;-79
2021/10/21 02:46:36;;;;;;;4.73;4.30;;;;;;;16.48;73.17;98888.41;5037201;58;1135124;-81
2021/10/21 02:51:42;;;;;;;5.00;3.53;;;;;;;16.47;73.19;98888.09;5034187;58;1134997;-81
2021/10/21 02:56:48;;;;;;;7.10;4.47;;;;;;;16.42;73.32;98885.17;5037384;58;1134853;-80
2021/10/21 03:01:54;;;;;;;4.07;3.57;;;;;;;16.33;73.78;98878.36;5041697;58;1134874;-81
2021/10/21 03:06:59;;;;;;;5.67;4.60;;;;;;;16.25;74.06;98888.66;5041578;58;1134916;-80
2021/10/21 03:12:05;;;;;;;8.53;4.27;;;;;;;16.19;74.37;98876.91;5041580;58;1134896;-80
2021/10/21 03:17:12;;;;;;;7.33;4.97;;;;;;;16.18;74.46;98877.14;5041620;58;1135117;-81
2021/10/21 03:22:18;;;;;;;5.17;4.03;;;;;;;16.12;74.53;98881.91;5041546;58;1135020;-78
2021/10/21 03:27:24;;;;;;;4.87;3.70;;;;;;;16.08;74.75;98881.97;5041656;58;1134867;-78
2021/10/21 03:32:30;;;;;;;7.03;4.53;;;;;;;16.05;74.97;98865.02;5041557;58;1135070;-79
2021/10/21 03:37:37;;;;;;;6.97;4.47;;;;;;;16.04;75.09;98862.06;5041597;58;1134920;-79
2021/10/21 03:42:43;;;;;;;6.53;4.27;;;;;;;15.96;75.24;98854.19;5041633;58;1134895;-80
2021/10/21 03:47:49;;;;;;;5.37;4.07;;;;;;;15.96;75.24;98854.19;5041556;58;1134908;-80
2021/10/21 03:52:54;;;;;;;6.27;3.80;;;;;;;15.99;75.27;98846.64;5041765;58;1132790;-80
2021/10/21 03:58:01;;;;;;;6.97;3.83;;;;;;;15.97;75.39;98826.52;5033339;58;1132923;-80
2021/10/21 04:03:06;;;;;;;5.87;4.37;;;;;;;15.95;75.61;98826.70;5032395;58;1137002;-79
2021/10/21 04:08:12;;;;;;;5.43;3.83;;;;;;;15.92;75.88;98817.75;5032169;58;1137013;-79
2021/10/21 04:13:17;;;;;;;5.17;3.58;;;;;;;15.93;76.00;98796.73;5032323;58;1136957;-78
2021/10/21 04:18:23;;;;;;;4.87;4.10;;;;;;;15.97;76.03;98759.85;5032089;58;1137120;-81
2021/10/21 04:23:29;;;;;;;5.00;3.00;;;;;;;15.95;76.54;98668.06;5032079;58;1137087;-81
2021/10/21 04:28:35;;;;;;;6.53;4.30;;;;;;;15.89;77.09;98688.83;5031913;58;1136892;-81
2021/10/21 04:33:41;;;;;;;3.98;3.33;;;;;;;15.82;77.52;98718.14;5031861;58;1137013;-79
2021/10/21 04:57:29;;;;;;;2.93;2.73;;;;;;;15.82;77.76;98578.70;5394086;54;46438;-81
2021/10/21 05:02:35;;;;;;;3.02;2.55;;;;;;;15.88;76.95;98542.44;5139303;57;1132769;-79
2021/10/21 05:07:41;;;;;;;3.20;2.90;;;;;;;15.99;76.22;98589.83;5150790;56;1136935;-79
2021/10/21 05:12:47;;;;;;;7.70;2.40;;;;;;;16.11;75.66;98577.55;5213666;55;1136879;-79
2021/10/21 05:17:54;;;;;;;2.13;1.93;;;;;;;16.17;75.13;98613.59;5209038;56;1136923;-79
2021/10/21 05:23:00;;;;;;;6.30;2.50;;;;;;;16.20;75.08;98593.66;5181606;56;1136948;-79
2021/10/21 05:28:06;;;;;;;14.53;3.93;;;;;;;16.20;75.13;98597.66;5132003;56;1137106;-81
2021/10/21 05:33:12;;;;;;;7.40;3.43;;;;;;;16.18;75.19;98581.89;5164754;56;1139066;-80
2021/10/21 05:38:18;;;;;;;3.40;3.20;;;;;;;16.15;75.34;98568.95;5060889;57;1137075;-77
2021/10/21 05:43:24;;;;;;;2.77;2.50;;;;;;;16.10;75.58;98578.58;5060631;57;1136986;-77
2021/10/21 05:48:30;;;;;;;3.70;3.00;;;;;;;16.04;75.74;98558.86;5130456;57;1136877;-78
2021/10/21 05:53:36;;;;;;;2.93;2.50;;;;;;;16.03;75.59;98497.76;5107565;57;1136979;-78
2021/10/21 05:58:42;;;;;;;3.53;3.10;;;;;;;16.01;75.63;98507.29;5053509;58;1136917;-79
2021/10/21 06:03:49;;;;;;;3.20;2.90;;;;;;;15.98;75.30;98510.35;5053520;58;1137219;-82
2021/10/21 06:08:54;;;;;;;2.43;2.27;;;;;;;16.01;75.01;98516.63;5039678;57;1137109;-79
2021/10/21 06:14:02;;;;;;;3.07;2.83;;;;;;;16.00;75.11;98528.31;4972724;58;1136947;-77
2021/10/21 06:19:08;;;;;;;6.73;2.93;;;;;;;15.96;75.27;98505.73;4977956;58;1136914;-77
2021/10/21 06:24:16;;;;;;;4.40;3.03;;;;;;;15.94;75.26;98470.95;5075373;57;1136837;-77
2021/10/21 06:29:22;;;;;;;6.17;3.40;;;;;;;15.90;75.26;98455.88;5145386;57;1137172;-77
2021/10/21 06:34:28;;;;;;;3.20;2.90;;;;;;;15.88;75.10;98448.63;5145575;57;1136936;-78
2021/10/21 06:39:34;;;;;;;6.07;3.97;;;;;;;15.90;74.90;98449.72;5100429;57;1137109;-79
2021/10/21 06:44:40;;;;;;;6.27;3.50;;;;;;;15.89;75.10;98477.44;5048373;57;1137198;-79
2021/10/21 06:49:46;;;;;;;3.70;3.17;;;;;;;15.89;75.61;98493.42;5045997;57;1137009;-78
2021/10/21 06:54:52;;;;;;;3.57;2.80;;;;;;;15.83;76.05;98499.05;5044734;57;1136957;-78
2021/10/21 06:59:58;;;;;;;2.70;2.50;;;;;;;15.81;76.31;98499.24;5113196;56;1137206;-78
2021/10/21 07:05:05;;;;;;;11.20;2.97;;;;;;;15.83;76.50;98505.70;5168905;56;1136944;-80
2021/10/21 07:10:12;;;;;;;5.87;2.80;;;;;;;15.82;77.00;98509.39;5168797;56;1139053;-81
2021/10/21 07:15:18;;;;;;;4.10;3.03;;;;;;;15.82;77.89;98539.54;5168708;56;1136928;-79
2021/10/21 07:20:24;;;;;;;3.40;2.53;;;;;;;15.76;79.80;98542.17;5117395;57;1137064;-80
2021/10/21 07:25:29;;;;;;;3.77;2.67;;;;;;;15.54;82.61;98543.30;5080203;57;1136962;-78
2021/10/21 07:30:35;;;;;;;5.83;2.83;;;;;;;15.22;85.24;98540.80;5080323;58;1136994;-79
2021/10/21 07:35:41;;;;;;;4.50;2.37;;;;;;;15.03;85.48;98531.67;5080551;57;1137134;-78
2021/10/21 07:53:35;;;;;;;7.03;4.90;;;;;;;14.91;89.48;98523.41;5186889;56;46300;-79
2021/10/21 07:58:41;;;;;;;7.08;4.83;;;;;;;14.58;92.19;98513.87;5089876;56;1132935;-78
2021/10/21 08:03:47;;;;;;;6.53;4.63;;;;;;;14.53;93.00;98506.97;5160409;56;1137060;-78
2021/10/21 08:08:54;;;;;;;6.17;4.20;;;;;;;14.46;94.13;98461.40;5139726;56;1136994;-78
2021/10/21 08:14:00;;;;;;;10.20;6.20;;;;;;;14.38;94.45;98421.09;5172879;56;1136892;-80
2021/10/21 08:19:07;;;;;;;4.50;3.33;;;;;;;14.38;94.45;98421.09;5119193;57;1138933;-80
2021/10/21 08:24:12;;;;;;;8.40;4.10;;;;;;;14.42;93.86;98408.59;4989008;57;1137168;-80
2021/10/21 08:29:22;;;;;;;9.40;4.27;;;;;;;14.50;93.41;98374.89;5043601;57;1136978;-79
2021/10/21 08:34:27;;;;;;;9.03;3.20;;;;;;;14.56;93.84;98360.78;5111223;57;1136969;-82
2021/10/21 08:39:36;;;;;;;6.27;3.80;;;;;;;14.62;94.19;98348.86;5110775;57;1137014;-80
2021/10/21 08:44:42;;;;;;;10.97;4.17;;;;;;;14.62;93.91;98340.88;5110566;57;1136980;-80
2021/10/21 08:49:48;;;;;;;5.20;3.60;;;;;;;14.66;93.44;98316.03;5106516;57;1139029;-82
2021/10/21 08:54:56;;;;;;;3.37;3.07;;;;;;;14.64;93.38;98298.94;5084289;57;1137037;-81
2021/10/21 09:00:01;;;;;;;5.07;3.27;;;;;;;14.70;92.92;98296.79;5058148;57;1137046;-80
2021/10/21 09:10:47;;;;;;;5.13;2.50;;;;;;;14.82;91.37;98309.55;4980111;58;1135174;-80
2021/10/21 09:15:57;;;;;;;1.97;1.73;;;;;;;14.96;89.01;98316.54;4959029;57;1135203;-80
2021/10/21 09:21:07;;;;;;;7.47;2.37;;;;;;;15.20;87.48;98276.54;5015369;57;1135092;-81
2021/10/21 09:26:12;;;;;;;3.23;2.23;;;;;;;15.40;86.11;98292.86;4995948;57;1134963;-81
2021/10/21 09:31:19;;;;;;;2.40;2.00;;;;;;;15.58;85.37;98287.47;5017337;58;1135199;-79
2021/10/21 09:36:25;;;;;;;4.37;2.40;;;;;;;15.80;84.03;98299.02;5000766;58;1134938;-81
2021/10/21 09:41:34;;;;;;;2.63;2.43;;;;;;;16.03;84.02;98254.60;5029209;57;1134933;-81
2021/10/21 09:46:42;;;;;;;6.13;2.00;;;;;;;16.10;83.13;98239.90;5000050;58;1134936;-79
2021/10/21 09:51:49;;;;;;;2.57;1.70;;;;;;;16.13;81.90;98263.48;5124220;57;1135131;-79
2021/10/21 09:57:00;;;;;;;2.07;1.97;;;;;;;16.36;79.17;98245.13;4980261;58;1134891;-79
2021/10/21 10:02:17;;;;;;;7.30;2.00;;;;;;;16.55;79.04;98214.06;5050779;58;1133127;-81
2021/10/21 10:07:26;;;;;;;11.97;1.63;;;;;;;16.77;78.02;98251.45;5014536;58;1136958;-80
2021/10/21 10:12:35;;;;;;;3.05;1.02;;;;;;;16.84;78.34;98266.09;5059842;57;1138962;-84
2021/10/21 10:17:41;;;;;;;0.50;0.50;;;;;;;15.60;86.30;98295.53;5029007;57;1136919;-83
2021/10/21 10:22:48;;;;;;;2.47;0.60;;;;;;;14.72;90.70;98322.69;5026727;57;1137175;-80
2021/10/21 10:28:07;;;;;;;1.87;0.90;;;;;;;14.18;93.81;98311.98;5117887;57;1137017;-81
2021/10/21 10:33:15;;;;;;;2.23;0.80;;;;;;;14.19;95.15;98302.16;5120527;57;1137097;-80
2021/10/21 10:38:26;;;;;;;1.27;1.10;;;;;;;14.32;95.15;98303.56;5091483;57;1136983;-80
2021/10/21 10:43:42;;;;;;;2.00;0.83;;;;;;;14.37;92.46;98300.60;5082972;57;1137116;-79
2021/10/21 10:48:56;;;;;;;4.60;1.83;;;;;;;14.52;92.69;98279.22;5044872;57;1136897;-78
2021/10/21 10:54:02;;;;;;;13.70;2.10;;;;;;;14.78;88.08;98267.36;5060648;57;1136965;-77
2021/10/21 10:59:23;;;;;;;6.23;1.37;;;;;;;15.07;85.94;98262.70;5005812;57;1139132;-78
2021/10/21 11:05:00;;;;;;;2.77;1.30;;;;;;;15.33;78.96;98267.23;5053176;57;1136961;-80
2021/10/21 11:10:29;;;;;;;16.13;1.70;;;;;;;15.64;79.78;98272.79;5066656;57;1137210;-79
2021/10/21 11:15:38;;;;;;;17.77;1.37;;;;;;;15.97;72.49;98262.09;5086809;57;1139140;-77
2021/10/21 17:19:06;;;;;;;10.63;8.80;;;;;;;10.96;84.00;99091.23;5384846;55;46123;-76
2021/10/21 17:24:13;;;;;;;5.53;1.92;;;;;;;10.87;83.09;99092.14;5063023;57;1134670;-74
2021/10/21 17:29:20;;;;;;;6.97;1.70;;;;;;;10.85;83.05;99094.94;5137846;56;1136880;-76
2021/10/21 17:34:26;;;;;;;1.97;1.27;;;;;;;10.86;82.70;99091.31;5074096;57;1136948;-76
2021/10/21 17:39:31;;;;;;;7.30;3.17;;;;;;;10.89;82.41;99091.00;5084398;57;1136968;-77
2021/10/21 17:44:37;;;;;;;50.67;17.80;;;;;;;10.95;81.41;99080.80;4950395;59;1136958;-75
2021/10/21 18:10:15;;;;;;;3.20;2.20;;;;;;;11.28;76.80;99072.88;5397304;54;46126;-75
2021/10/21 18:15:21;;;;;;;49.87;14.80;;;;;;;11.63;72.49;99067.86;5150232;57;1132882;-77
2021/10/21 18:20:26;;;;;;;17.10;5.27;;;;;;;11.71;71.53;99063.59;5074459;58;1141151;-77
2021/10/21 18:25:32;;;;;;;14.90;4.23;;;;;;;11.77;69.97;99062.45;5156916;57;1138856;-77
2021/10/21 19:04:27;;;;;;;21.43;8.80;;;;;;;11.75;68.12;99027.36;5272956;55;46376;-80
2021/10/21 19:09:34;;;;;;;8.77;3.93;;;;;;;11.72;68.12;99032.14;5126033;56;1134806;-77
2021/10/21 19:14:40;;;;;;;6.13;2.20;;;;;;;11.77;68.31;99021.89;5018415;57;1137158;-74
2021/10/21 19:19:46;;;;;;;23.00;7.63;;;;;;;11.81;67.84;99051.88;5035403;58;1137160;-75
2021/10/21 19:24:53;;;;;;;3.20;0.90;;;;;;;11.70;73.16;99099.84;5001594;58;1138969;-76
2021/10/21 19:30:03;;;;;;;4.50;1.33;;;;;;;11.13;83.32;99129.20;4998571;58;1137147;-75
2021/10/21 19:35:11;;;;;;;9.63;1.67;;;;;;;10.28;89.30;99151.81;5046720;58;1136953;-75
2021/10/21 19:40:17;;;;;;;0.60;0.60;;;;;;;9.99;87.80;99181.53;5046129;58;1136958;-76
2021/10/21 19:45:23;;;;;;;1.90;0.93;;;;;;;9.76;89.25;99176.66;5048512;57;1134926;-76
2021/10/21 19:50:29;;;;;;;0.93;0.70;;;;;;;9.50;91.76;99206.00;5066568;58;1134880;-75
2021/10/21 19:55:35;;;;;;;1.43;0.43;;;;;;;9.26;93.85;99239.47;5011278;57;1134894;-77
2021/10/21 20:00:42;;;;;;;5.10;1.40;;;;;;;9.04;94.33;99231.86;5037409;58;1134930;-77
2021/10/21 20:05:47;;;;;;;25.07;6.47;;;;;;;8.90;95.25;99224.37;5071662;57;1134828;-76
2021/10/21 20:10:56;;;;;;;11.78;3.42;;;;;;;8.79;96.35;99238.55;5071824;56;1136887;-77
2021/10/21 20:29:09;;;;;;;0.50;0.50;;;;;;;8.59;96.84;99247.41;5322150;55;46089;-76
2021/10/21 20:34:15;;;;;;;2.37;0.40;;;;;;;8.49;98.17;99253.99;5102290;56;1130734;-76
2021/10/21 20:39:22;;;;;;;0.50;0.50;;;;;;;8.45;98.21;99264.45;5084889;57;1134824;-77
2021/10/21 20:44:27;;;;;;;0.47;0.40;;;;;;;8.35;98.64;99288.62;4965362;58;1135076;-76
2021/10/21 20:49:34;;;;;;;4.47;0.40;;;;;;;8.35;98.64;99288.62;5035786;57;1134846;-75
2021/10/21 20:54:40;;;;;;;0.57;0.30;;;;;;;8.30;98.91;99277.14;4995422;58;1134877;-75
2021/10/21 20:59:46;;;;;;;0.40;0.40;;;;;;;8.28;98.37;99261.11;4966677;58;1134892;-76
2021/10/21 21:04:52;;;;;;;2.00;0.50;;;;;;;8.25;99.12;99288.55;5048884;57;1134795;-76
2021/10/21 21:09:59;;;;;;;0.60;0.60;;;;;;;8.24;98.78;99307.98;5048784;57;1134923;-75
2021/10/21 21:15:06;;;;;;;0.50;0.50;;;;;;;8.23;98.89;99308.95;5041138;58;1134994;-76
2021/10/21 21:20:12;;;;;;;2.93;0.83;;;;;;;8.19;98.90;99328.61;5040178;58;1134834;-75
2021/10/21 21:25:18;;;;;;;1.13;0.50;;;;;;;8.21;98.88;99326.69;5048345;57;1135061;-75
2021/10/21 21:30:25;;;;;;;0.70;0.70;;;;;;;8.21;98.99;99337.22;5038104;57;1134869;-76
2021/10/21 21:35:30;;;;;;;0.87;0.50;;;;;;;8.20;99.04;99335.55;5038253;57;1134833;-76
2021/10/21 21:40:37;;;;;;;0.53;0.53;;;;;;;8.18;99.45;99340.59;5068182;57;1135065;-76
2021/10/21 21:45:49;;;;;;;0.83;0.80;;;;;;;8.17;99.49;99356.88;5120485;57;1135042;-76
2021/10/21 21:50:51;;;;;;;1.53;0.63;;;;;;;8.17;98.73;99364.78;5083004;57;1134946;-75
2021/10/21 21:55:57;;;;;;;4.30;0.80;;;;;;;8.15;98.86;99370.66;5011534;58;1135075;-76
2021/10/21 22:01:02;;;;;;;4.30;0.70;;;;;;;8.15;98.65;99381.67;5010370;58;1135007;-76
2021/10/21 22:06:11;;;;;;;2.53;1.00;;;;;;;8.13;98.15;99396.28;5023591;57;1134968;-76
2021/10/21 22:11:17;;;;;;;4.30;1.10;;;;;;;8.06;97.91;99395.99;5024152;57;1134934;-76
2021/10/21 22:16:23;;;;;;;0.83;0.83;;;;;;;8.07;98.18;99405.56;5024792;58;1134787;-77
2021/10/21 22:21:29;;;;;;;3.50;0.50;;;;;;;8.04;96.88;99428.68;5024951;57;1134911;-78
2021/10/21 22:26:36;;;;;;;4.33;1.37;;;;;;;8.06;97.06;99428.07;5025053;57;1134817;-77
2021/10/21 22:31:42;;;;;;;2.57;0.73;;;;;;;8.04;96.22;99430.00;5024905;57;1134894;-77
2021/10/21 22:36:48;;;;;;;4.33;0.80;;;;;;;7.97;95.69;99430.98;5025017;57;1134859;-78
2021/10/21 22:41:54;;;;;;;7.77;2.30;;;;;;;7.92;95.53;99437.62;5024936;58;1134889;-77
2021/10/21 22:47:00;;;;;;;6.90;0.83;;;;;;;7.88;94.97;99444.09;5033293;57;1135041;-78
2021/10/21 22:52:08;;;;;;;4.90;0.98;;;;;;;7.88;94.90;99458.09;5033393;57;1134795;-77
2021/10/21 22:57:18;;;;;;;4.97;1.13;;;;;;;7.89;94.58;99446.59;5036108;58;1134830;-77
2021/10/21 23:02:23;;;;;;;2.27;0.78;;;;;;;7.90;94.27;99470.65;5022662;58;1132770;-78
2021/10/21 23:07:29;;;;;;;2.30;0.82;;;;;;;7.94;94.04;99484.40;4817973;61;1132843;-77
2021/10/21 23:12:36;;;;;;;3.13;1.23;;;;;;;7.95;93.63;99475.03;4899887;60;1132937;-78
2021/10/21 23:17:41;;;;;;;6.30;1.40;;;;;;;7.98;93.20;99480.52;4872257;60;1132833;-78
2021/10/21 23:22:47;;;;;;;8.37;1.00;;;;;;;7.97;92.05;99478.85;4792891;60;1132882;-77
2021/10/21 23:27:53;;;;;;;1.37;0.77;;;;;;;7.96;91.82;99484.59;4774646;61;1133066;-78
2021/10/21 23:32:58;;;;;;;2.37;1.27;;;;;;;7.94;91.35;99483.08;4840505;60;1132853;-77
2021/10/21 23:38:04;;;;;;;2.57;0.93;;;;;;;7.96;91.26;99487.71;5057520;58;1132789;-78
2021/10/21 23:43:10;;;;;;;2.05;1.00;;;;;;;7.95;90.67;99489.51;5074390;58;1132801;-77
2021/10/21 23:48:16;;;;;;;5.93;1.10;;;;;;;7.94;90.40;99489.19;5066616;58;1132826;-78
2021/10/21 23:53:22;;;;;;;7.60;1.77;;;;;;;7.95;90.21;99501.36;5039969;58;1132792;-77
2021/10/21 23:58:28;;;;;;;6.50;1.20;;;;;;;7.94;89.04;99505.46;4957924;59;1132817;-77
